sensor_id;sensor_type;location;lat;lon;timestamp;P1;durP1;ratioP1;P2;durP2;ratioP2
11921;SDS011;6021;51.182;3.160;2023-04-25T00:00:40;10.10;;;4.53;;
11921;SDS011;6021;51.182;3.160;2023-04-25T00:03:24;9.27;;;3.93;;
11921;SDS011;6021;51.182;3.160;2023-04-25T00:08:58;7.73;;;4.27;;
11921;SDS011;6021;51.182;3.160;2023-04-25T00:16:56;10.33;;;4.50;;
11921;SDS011;6021;51.182;3.160;2023-04-25T00:19:23;14.73;;;4.70;;
11921;SDS011;6021;51.182;3.160;2023-04-25T00:21:54;10.23;;;4.53;;
11921;SDS011;6021;51.182;3.160;2023-04-25T00:27:26;9.53;;;3.93;;
11921;SDS011;6021;51.182;3.160;2023-04-25T00:30:08;14.33;;;4.53;;
11921;SDS011;6021;51.182;3.160;2023-04-25T00:32:36;10.67;;;4.00;;
11921;SDS011;6021;51.182;3.160;2023-04-25T00:35:16;11.53;;;4.70;;
11921;SDS011;6021;51.182;3.160;2023-04-25T00:37:49;15.10;;;4.37;;
11921;SDS011;6021;51.182;3.160;2023-04-25T00:40:31;10.10;;;3.63;;
11921;SDS011;6021;51.182;3.160;2023-04-25T00:42:59;10.80;;;4.00;;
11921;SDS011;6021;51.182;3.160;2023-04-25T00:45:29;11.37;;;4.10;;
11921;SDS011;6021;51.182;3.160;2023-04-25T00:47:59;11.53;;;4.13;;
11921;SDS011;6021;51.182;3.160;2023-04-25T00:50:32;11.00;;;4.30;;
11921;SDS011;6021;51.182;3.160;2023-04-25T00:53:02;11.40;;;3.60;;
11921;SDS011;6021;51.182;3.160;2023-04-25T00:58:13;11.53;;;3.80;;
11921;SDS011;6021;51.182;3.160;2023-04-25T01:05:56;9.90;;;3.50;;
11921;SDS011;6021;51.182;3.160;2023-04-25T01:08:27;8.13;;;3.30;;
11921;SDS011;6021;51.182;3.160;2023-04-25T01:10:57;7.20;;;3.10;;
11921;SDS011;6021;51.182;3.160;2023-04-25T01:13:26;12.63;;;4.30;;
11921;SDS011;6021;51.182;3.160;2023-04-25T01:15:56;9.20;;;3.33;;
11921;SDS011;6021;51.182;3.160;2023-04-25T01:18:27;9.47;;;3.60;;
11921;SDS011;6021;51.182;3.160;2023-04-25T01:21:06;7.57;;;3.43;;
11921;SDS011;6021;51.182;3.160;2023-04-25T01:23:42;14.30;;;3.87;;
11921;SDS011;6021;51.182;3.160;2023-04-25T01:26:16;9.07;;;3.40;;
11921;SDS011;6021;51.182;3.160;2023-04-25T01:28:50;7.27;;;3.73;;
11921;SDS011;6021;51.182;3.160;2023-04-25T01:31:19;8.67;;;3.83;;
11921;SDS011;6021;51.182;3.160;2023-04-25T01:33:51;8.60;;;3.50;;
11921;SDS011;6021;51.182;3.160;2023-04-25T01:36:27;10.73;;;4.33;;
11921;SDS011;6021;51.182;3.160;2023-04-25T01:38:59;9.87;;;3.90;;
11921;SDS011;6021;51.182;3.160;2023-04-25T01:41:28;12.93;;;4.10;;
11921;SDS011;6021;51.182;3.160;2023-04-25T01:43:57;10.40;;;4.00;;
11921;SDS011;6021;51.182;3.160;2023-04-25T01:46:26;11.00;;;4.13;;
11921;SDS011;6021;51.182;3.160;2023-04-25T01:48:54;7.23;;;3.47;;
11921;SDS011;6021;51.182;3.160;2023-04-25T01:51:23;9.57;;;4.20;;
11921;SDS011;6021;51.182;3.160;2023-04-25T01:53:51;9.90;;;3.77;;
11921;SDS011;6021;51.182;3.160;2023-04-25T01:56:21;10.67;;;4.03;;
11921;SDS011;6021;51.182;3.160;2023-04-25T01:58:49;12.27;;;4.23;;
11921;SDS011;6021;51.182;3.160;2023-04-25T02:01:19;8.77;;;4.27;;
11921;SDS011;6021;51.182;3.160;2023-04-25T02:03:47;10.70;;;4.10;;
11921;SDS011;6021;51.182;3.160;2023-04-25T02:06:16;10.97;;;4.00;;
11921;SDS011;6021;51.182;3.160;2023-04-25T02:08:46;9.47;;;4.10;;
11921;SDS011;6021;51.182;3.160;2023-04-25T02:11:16;11.13;;;4.07;;
11921;SDS011;6021;51.182;3.160;2023-04-25T02:13:45;8.43;;;3.90;;
11921;SDS011;6021;51.182;3.160;2023-04-25T02:16:21;9.67;;;3.90;;
11921;SDS011;6021;51.182;3.160;2023-04-25T02:18:47;10.07;;;4.63;;
11921;SDS011;6021;51.182;3.160;2023-04-25T02:21:19;13.00;;;4.30;;
11921;SDS011;6021;51.182;3.160;2023-04-25T02:23:51;9.53;;;4.27;;
11921;SDS011;6021;51.182;3.160;2023-04-25T02:26:22;11.47;;;4.00;;
11921;SDS011;6021;51.182;3.160;2023-04-25T02:28:51;10.77;;;3.83;;
11921;SDS011;6021;51.182;3.160;2023-04-25T02:31:19;10.93;;;3.83;;
11921;SDS011;6021;51.182;3.160;2023-04-25T02:33:48;7.70;;;3.60;;
11921;SDS011;6021;51.182;3.160;2023-04-25T02:36:17;7.20;;;3.50;;
11921;SDS011;6021;51.182;3.160;2023-04-25T02:38:45;7.40;;;3.70;;
11921;SDS011;6021;51.182;3.160;2023-04-25T02:41:14;9.63;;;3.80;;
11921;SDS011;6021;51.182;3.160;2023-04-25T02:43:42;8.37;;;3.77;;
11921;SDS011;6021;51.182;3.160;2023-04-25T02:46:11;9.27;;;3.90;;
11921;SDS011;6021;51.182;3.160;2023-04-25T02:48:39;12.03;;;4.00;;
11921;SDS011;6021;51.182;3.160;2023-04-25T02:51:10;8.33;;;3.43;;
11921;SDS011;6021;51.182;3.160;2023-04-25T02:53:40;7.20;;;3.60;;
11921;SDS011;6021;51.182;3.160;2023-04-25T02:56:09;7.70;;;3.47;;
11921;SDS011;6021;51.182;3.160;2023-04-25T02:58:38;7.87;;;3.90;;
11921;SDS011;6021;51.182;3.160;2023-04-25T03:01:07;11.13;;;4.10;;
11921;SDS011;6021;51.182;3.160;2023-04-25T03:03:37;9.13;;;3.83;;
11921;SDS011;6021;51.182;3.160;2023-04-25T03:06:06;9.13;;;3.60;;
11921;SDS011;6021;51.182;3.160;2023-04-25T03:08:36;10.70;;;3.73;;
11921;SDS011;6021;51.182;3.160;2023-04-25T03:11:05;11.20;;;4.20;;
11921;SDS011;6021;51.182;3.160;2023-04-25T03:13:34;9.30;;;4.20;;
11921;SDS011;6021;51.182;3.160;2023-04-25T03:16:02;8.13;;;4.00;;
11921;SDS011;6021;51.182;3.160;2023-04-25T03:18:34;10.83;;;4.00;;
11921;SDS011;6021;51.182;3.160;2023-04-25T03:21:06;10.03;;;3.77;;
11921;SDS011;6021;51.182;3.160;2023-04-25T03:23:34;11.40;;;3.77;;
11921;SDS011;6021;51.182;3.160;2023-04-25T03:26:03;13.20;;;3.87;;
11921;SDS011;6021;51.182;3.160;2023-04-25T03:28:31;9.23;;;3.37;;
11921;SDS011;6021;51.182;3.160;2023-04-25T03:30:59;10.93;;;3.57;;
11921;SDS011;6021;51.182;3.160;2023-04-25T03:33:28;10.83;;;3.90;;
11921;SDS011;6021;51.182;3.160;2023-04-25T03:35:56;10.53;;;3.37;;
11921;SDS011;6021;51.182;3.160;2023-04-25T03:38:24;8.77;;;3.00;;
11921;SDS011;6021;51.182;3.160;2023-04-25T03:40:53;8.47;;;3.03;;
11921;SDS011;6021;51.182;3.160;2023-04-25T03:43:25;9.50;;;3.13;;
11921;SDS011;6021;51.182;3.160;2023-04-25T03:45:55;9.47;;;3.23;;
11921;SDS011;6021;51.182;3.160;2023-04-25T03:48:24;7.50;;;2.93;;
11921;SDS011;6021;51.182;3.160;2023-04-25T03:50:54;6.40;;;2.80;;
11921;SDS011;6021;51.182;3.160;2023-04-25T03:53:25;5.87;;;2.53;;
11921;SDS011;6021;51.182;3.160;2023-04-25T03:55:54;6.20;;;2.73;;
11921;SDS011;6021;51.182;3.160;2023-04-25T03:58:31;6.10;;;2.60;;
11921;SDS011;6021;51.182;3.160;2023-04-25T04:00:56;7.13;;;2.77;;
11921;SDS011;6021;51.182;3.160;2023-04-25T04:03:28;8.13;;;2.57;;
11921;SDS011;6021;51.182;3.160;2023-04-25T04:05:57;7.97;;;3.10;;
11921;SDS011;6021;51.182;3.160;2023-04-25T04:08:32;8.77;;;3.17;;
11921;SDS011;6021;51.182;3.160;2023-04-25T04:11:07;6.37;;;2.60;;
11921;SDS011;6021;51.182;3.160;2023-04-25T04:13:38;4.73;;;2.50;;
11921;SDS011;6021;51.182;3.160;2023-04-25T04:16:08;5.20;;;2.53;;
11921;SDS011;6021;51.182;3.160;2023-04-25T04:18:45;6.23;;;2.70;;
11921;SDS011;6021;51.182;3.160;2023-04-25T04:21:14;6.80;;;2.80;;
11921;SDS011;6021;51.182;3.160;2023-04-25T04:23:42;6.60;;;2.87;;
11921;SDS011;6021;51.182;3.160;2023-04-25T04:26:15;5.33;;;2.40;;
11921;SDS011;6021;51.182;3.160;2023-04-25T04:28:51;6.77;;;2.80;;
11921;SDS011;6021;51.182;3.160;2023-04-25T04:31:26;7.00;;;2.90;;
11921;SDS011;6021;51.182;3.160;2023-04-25T04:33:59;6.47;;;2.70;;
11921;SDS011;6021;51.182;3.160;2023-04-25T04:36:28;6.13;;;2.43;;
11921;SDS011;6021;51.182;3.160;2023-04-25T04:38:57;6.83;;;2.80;;
11921;SDS011;6021;51.182;3.160;2023-04-25T04:41:28;7.60;;;2.93;;
11921;SDS011;6021;51.182;3.160;2023-04-25T04:44:03;4.93;;;2.40;;
11921;SDS011;6021;51.182;3.160;2023-04-25T04:46:37;4.73;;;2.27;;
11921;SDS011;6021;51.182;3.160;2023-04-25T04:49:16;5.50;;;2.40;;
11921;SDS011;6021;51.182;3.160;2023-04-25T04:51:56;6.83;;;2.83;;
11921;SDS011;6021;51.182;3.160;2023-04-25T04:54:32;5.73;;;2.27;;
11921;SDS011;6021;51.182;3.160;2023-04-25T04:57:17;7.27;;;2.73;;
11921;SDS011;6021;51.182;3.160;2023-04-25T04:59:58;6.07;;;2.50;;
11921;SDS011;6021;51.182;3.160;2023-04-25T05:16:05;8.83;;;2.47;;
11921;SDS011;6021;51.182;3.160;2023-04-25T05:18:40;8.30;;;2.50;;
11921;SDS011;6021;51.182;3.160;2023-04-25T05:21:10;9.17;;;2.60;;
11921;SDS011;6021;51.182;3.160;2023-04-25T05:23:41;6.17;;;2.07;;
11921;SDS011;6021;51.182;3.160;2023-04-25T05:26:12;9.07;;;2.57;;
11921;SDS011;6021;51.182;3.160;2023-04-25T05:28:42;6.90;;;2.07;;
11921;SDS011;6021;51.182;3.160;2023-04-25T05:31:11;6.30;;;2.30;;
11921;SDS011;6021;51.182;3.160;2023-04-25T05:33:51;9.40;;;2.30;;
11921;SDS011;6021;51.182;3.160;2023-04-25T05:36:26;9.10;;;2.30;;
11921;SDS011;6021;51.182;3.160;2023-04-25T05:39:03;5.80;;;2.00;;
11921;SDS011;6021;51.182;3.160;2023-04-25T05:49:34;6.93;;;2.10;;
11921;SDS011;6021;51.182;3.160;2023-04-25T05:52:04;5.03;;;1.90;;
11921;SDS011;6021;51.182;3.160;2023-04-25T05:54:43;5.87;;;2.00;;
11921;SDS011;6021;51.182;3.160;2023-04-25T05:57:27;7.53;;;2.23;;
11921;SDS011;6021;51.182;3.160;2023-04-25T06:00:16;6.37;;;2.23;;
11921;SDS011;6021;51.182;3.160;2023-04-25T06:06:29;10.57;;;2.00;;
11921;SDS011;6021;51.182;3.160;2023-04-25T06:08:56;7.30;;;2.10;;
11921;SDS011;6021;51.182;3.160;2023-04-25T06:14:52;7.10;;;2.40;;
11921;SDS011;6021;51.182;3.160;2023-04-25T06:17:17;4.20;;;1.80;;
11921;SDS011;6021;51.182;3.160;2023-04-25T06:19:50;5.27;;;1.70;;
11921;SDS011;6021;51.182;3.160;2023-04-25T06:22:21;5.83;;;2.10;;
11921;SDS011;6021;51.182;3.160;2023-04-25T06:24:50;4.70;;;1.90;;
11921;SDS011;6021;51.182;3.160;2023-04-25T06:27:18;4.50;;;2.00;;
11921;SDS011;6021;51.182;3.160;2023-04-25T06:29:47;5.47;;;1.93;;
11921;SDS011;6021;51.182;3.160;2023-04-25T06:32:16;4.73;;;1.87;;
11921;SDS011;6021;51.182;3.160;2023-04-25T06:34:46;4.33;;;2.00;;
11921;SDS011;6021;51.182;3.160;2023-04-25T06:37:20;5.77;;;2.27;;
11921;SDS011;6021;51.182;3.160;2023-04-25T06:39:50;6.27;;;1.83;;
11921;SDS011;6021;51.182;3.160;2023-04-25T06:42:18;7.87;;;2.07;;
11921;SDS011;6021;51.182;3.160;2023-04-25T06:44:47;7.90;;;2.00;;
11921;SDS011;6021;51.182;3.160;2023-04-25T06:47:15;3.80;;;1.70;;
11921;SDS011;6021;51.182;3.160;2023-04-25T06:49:44;5.80;;;1.90;;
11921;SDS011;6021;51.182;3.160;2023-04-25T06:52:12;6.93;;;2.00;;
11921;SDS011;6021;51.182;3.160;2023-04-25T06:54:45;6.77;;;2.10;;
11921;SDS011;6021;51.182;3.160;2023-04-25T06:57:22;6.23;;;2.27;;
11921;SDS011;6021;51.182;3.160;2023-04-25T06:59:56;8.43;;;2.20;;
11921;SDS011;6021;51.182;3.160;2023-04-25T07:02:29;8.17;;;2.30;;
11921;SDS011;6021;51.182;3.160;2023-04-25T07:05:06;4.30;;;1.83;;
11921;SDS011;6021;51.182;3.160;2023-04-25T07:07:40;8.93;;;2.20;;
11921;SDS011;6021;51.182;3.160;2023-04-25T07:10:08;5.40;;;1.80;;
11921;SDS011;6021;51.182;3.160;2023-04-25T07:12:36;5.77;;;1.97;;
11921;SDS011;6021;51.182;3.160;2023-04-25T07:15:14;7.23;;;2.13;;
11921;SDS011;6021;51.182;3.160;2023-04-25T07:17:48;9.47;;;2.10;;
11921;SDS011;6021;51.182;3.160;2023-04-25T07:20:18;7.03;;;1.90;;
11921;SDS011;6021;51.182;3.160;2023-04-25T07:22:50;6.43;;;2.00;;
11921;SDS011;6021;51.182;3.160;2023-04-25T07:25:23;6.07;;;2.07;;
11921;SDS011;6021;51.182;3.160;2023-04-25T07:27:51;6.30;;;1.90;;
11921;SDS011;6021;51.182;3.160;2023-04-25T07:30:22;6.30;;;1.80;;
11921;SDS011;6021;51.182;3.160;2023-04-25T07:32:52;4.63;;;1.80;;
11921;SDS011;6021;51.182;3.160;2023-04-25T07:35:23;6.67;;;1.90;;
11921;SDS011;6021;51.182;3.160;2023-04-25T07:37:53;8.90;;;2.03;;
11921;SDS011;6021;51.182;3.160;2023-04-25T07:40:26;8.70;;;2.00;;
11921;SDS011;6021;51.182;3.160;2023-04-25T07:42:56;8.00;;;1.90;;
11921;SDS011;6021;51.182;3.160;2023-04-25T07:45:27;4.70;;;1.90;;
11921;SDS011;6021;51.182;3.160;2023-04-25T07:47:55;8.67;;;1.90;;
11921;SDS011;6021;51.182;3.160;2023-04-25T07:50:26;4.90;;;1.80;;
11921;SDS011;6021;51.182;3.160;2023-04-25T07:52:57;5.73;;;1.97;;
11921;SDS011;6021;51.182;3.160;2023-04-25T07:55:25;4.13;;;1.77;;
11921;SDS011;6021;51.182;3.160;2023-04-25T07:57:59;7.23;;;2.00;;
11921;SDS011;6021;51.182;3.160;2023-04-25T08:00:35;6.13;;;2.00;;
11921;SDS011;6021;51.182;3.160;2023-04-25T08:03:09;5.53;;;2.00;;
11921;SDS011;6021;51.182;3.160;2023-04-25T08:05:38;6.73;;;1.90;;
11921;SDS011;6021;51.182;3.160;2023-04-25T08:08:06;4.23;;;1.47;;
11921;SDS011;6021;51.182;3.160;2023-04-25T08:10:34;5.53;;;1.80;;
11921;SDS011;6021;51.182;3.160;2023-04-25T08:13:05;4.00;;;1.60;;
11921;SDS011;6021;51.182;3.160;2023-04-25T08:15:34;3.53;;;1.50;;
11921;SDS011;6021;51.182;3.160;2023-04-25T08:18:03;3.73;;;1.40;;
11921;SDS011;6021;51.182;3.160;2023-04-25T08:20:38;3.17;;;1.40;;
11921;SDS011;6021;51.182;3.160;2023-04-25T08:23:08;5.33;;;1.80;;
11921;SDS011;6021;51.182;3.160;2023-04-25T08:25:43;4.70;;;1.70;;
11921;SDS011;6021;51.182;3.160;2023-04-25T08:28:13;5.03;;;1.40;;
11921;SDS011;6021;51.182;3.160;2023-04-25T08:30:44;5.13;;;1.77;;
11921;SDS011;6021;51.182;3.160;2023-04-25T08:33:12;5.90;;;1.70;;
11921;SDS011;6021;51.182;3.160;2023-04-25T08:35:41;6.67;;;2.10;;
11921;SDS011;6021;51.182;3.160;2023-04-25T08:38:09;4.10;;;1.40;;
11921;SDS011;6021;51.182;3.160;2023-04-25T08:40:39;3.73;;;1.63;;
11921;SDS011;6021;51.182;3.160;2023-04-25T08:43:12;6.00;;;1.90;;
11921;SDS011;6021;51.182;3.160;2023-04-25T08:45:43;5.23;;;1.80;;
11921;SDS011;6021;51.182;3.160;2023-04-25T08:48:14;4.87;;;1.40;;
11921;SDS011;6021;51.182;3.160;2023-04-25T08:50:50;4.37;;;1.73;;
11921;SDS011;6021;51.182;3.160;2023-04-25T08:53:21;4.90;;;1.53;;
11921;SDS011;6021;51.182;3.160;2023-04-25T08:55:54;4.80;;;1.57;;
11921;SDS011;6021;51.182;3.160;2023-04-25T08:58:23;5.83;;;1.73;;
11921;SDS011;6021;51.182;3.160;2023-04-25T09:00:57;4.53;;;1.50;;
11921;SDS011;6021;51.182;3.160;2023-04-25T09:03:34;3.50;;;1.60;;
11921;SDS011;6021;51.182;3.160;2023-04-25T09:06:00;4.20;;;1.63;;
11921;SDS011;6021;51.182;3.160;2023-04-25T09:08:29;5.10;;;1.67;;
11921;SDS011;6021;51.182;3.160;2023-04-25T09:11:02;5.80;;;1.93;;
11921;SDS011;6021;51.182;3.160;2023-04-25T09:13:30;4.33;;;1.50;;
11921;SDS011;6021;51.182;3.160;2023-04-25T09:15:59;4.60;;;1.50;;
11921;SDS011;6021;51.182;3.160;2023-04-25T09:18:31;7.97;;;1.60;;
11921;SDS011;6021;51.182;3.160;2023-04-25T09:21:06;6.00;;;1.50;;
11921;SDS011;6021;51.182;3.160;2023-04-25T09:23:46;3.87;;;1.30;;
11921;SDS011;6021;51.182;3.160;2023-04-25T09:26:28;5.40;;;1.50;;
11921;SDS011;6021;51.182;3.160;2023-04-25T09:29:06;3.80;;;1.40;;
11921;SDS011;6021;51.182;3.160;2023-04-25T09:31:37;6.47;;;1.47;;
11921;SDS011;6021;51.182;3.160;2023-04-25T09:34:10;3.63;;;1.60;;
11921;SDS011;6021;51.182;3.160;2023-04-25T09:36:42;3.43;;;1.37;;
11921;SDS011;6021;51.182;3.160;2023-04-25T09:39:12;5.47;;;1.57;;
11921;SDS011;6021;51.182;3.160;2023-04-25T09:41:45;5.17;;;1.50;;
11921;SDS011;6021;51.182;3.160;2023-04-25T09:44:14;4.43;;;1.50;;
11921;SDS011;6021;51.182;3.160;2023-04-25T09:46:46;4.90;;;1.57;;
11921;SDS011;6021;51.182;3.160;2023-04-25T09:49:21;6.50;;;1.77;;
11921;SDS011;6021;51.182;3.160;2023-04-25T09:51:55;4.73;;;1.60;;
11921;SDS011;6021;51.182;3.160;2023-04-25T09:54:26;4.77;;;1.60;;
11921;SDS011;6021;51.182;3.160;2023-04-25T09:56:55;3.57;;;1.33;;
11921;SDS011;6021;51.182;3.160;2023-04-25T09:59:34;4.33;;;1.30;;
11921;SDS011;6021;51.182;3.160;2023-04-25T10:02:08;3.67;;;1.50;;
11921;SDS011;6021;51.182;3.160;2023-04-25T10:04:38;4.70;;;1.57;;
11921;SDS011;6021;51.182;3.160;2023-04-25T10:07:09;5.43;;;1.57;;
11921;SDS011;6021;51.182;3.160;2023-04-25T10:09:41;5.10;;;1.53;;
11921;SDS011;6021;51.182;3.160;2023-04-25T10:12:13;3.97;;;1.60;;
11921;SDS011;6021;51.182;3.160;2023-04-25T10:14:46;4.10;;;1.37;;
11921;SDS011;6021;51.182;3.160;2023-04-25T10:17:21;3.47;;;1.40;;
11921;SDS011;6021;51.182;3.160;2023-04-25T10:19:52;3.33;;;1.43;;
11921;SDS011;6021;51.182;3.160;2023-04-25T10:22:44;3.33;;;1.30;;
11921;SDS011;6021;51.182;3.160;2023-04-25T10:25:16;3.23;;;1.20;;
11921;SDS011;6021;51.182;3.160;2023-04-25T10:27:45;3.80;;;1.23;;
11921;SDS011;6021;51.182;3.160;2023-04-25T10:30:14;3.10;;;1.10;;
11921;SDS011;6021;51.182;3.160;2023-04-25T10:32:43;2.43;;;1.40;;
11921;SDS011;6021;51.182;3.160;2023-04-25T10:35:17;3.13;;;1.13;;
11921;SDS011;6021;51.182;3.160;2023-04-25T10:37:57;3.00;;;1.30;;
11921;SDS011;6021;51.182;3.160;2023-04-25T10:40:31;3.60;;;1.20;;
11921;SDS011;6021;51.182;3.160;2023-04-25T10:46:14;4.17;;;1.23;;
11921;SDS011;6021;51.182;3.160;2023-04-25T10:48:47;5.40;;;1.53;;
11921;SDS011;6021;51.182;3.160;2023-04-25T10:51:26;3.23;;;1.00;;
11921;SDS011;6021;51.182;3.160;2023-04-25T10:56:39;2.30;;;1.30;;
11921;SDS011;6021;51.182;3.160;2023-04-25T10:59:14;4.60;;;1.40;;
11921;SDS011;6021;51.182;3.160;2023-04-25T11:01:49;3.00;;;1.10;;
11921;SDS011;6021;51.182;3.160;2023-04-25T11:04:33;3.67;;;1.30;;
11921;SDS011;6021;51.182;3.160;2023-04-25T11:07:17;4.10;;;1.40;;
11921;SDS011;6021;51.182;3.160;2023-04-25T11:09:49;3.00;;;1.20;;
11921;SDS011;6021;51.182;3.160;2023-04-25T11:12:24;5.93;;;1.40;;
11921;SDS011;6021;51.182;3.160;2023-04-25T11:15:03;5.77;;;1.37;;
11921;SDS011;6021;51.182;3.160;2023-04-25T11:17:38;4.77;;;1.70;;
11921;SDS011;6021;51.182;3.160;2023-04-25T11:20:13;4.60;;;1.50;;
11921;SDS011;6021;51.182;3.160;2023-04-25T11:22:44;5.37;;;1.53;;
11921;SDS011;6021;51.182;3.160;2023-04-25T11:25:19;4.83;;;1.40;;
11921;SDS011;6021;51.182;3.160;2023-04-25T11:28:12;4.37;;;1.50;;
11921;SDS011;6021;51.182;3.160;2023-04-25T11:30:34;4.90;;;1.70;;
11921;SDS011;6021;51.182;3.160;2023-04-25T11:33:02;5.20;;;1.67;;
11921;SDS011;6021;51.182;3.160;2023-04-25T11:35:47;5.23;;;1.50;;
11921;SDS011;6021;51.182;3.160;2023-04-25T11:38:08;5.70;;;1.83;;
11921;SDS011;6021;51.182;3.160;2023-04-25T11:40:38;6.53;;;2.27;;
11921;SDS011;6021;51.182;3.160;2023-04-25T11:43:11;5.53;;;1.87;;
11921;SDS011;6021;51.182;3.160;2023-04-25T11:45:41;5.27;;;1.77;;
11921;SDS011;6021;51.182;3.160;2023-04-25T11:48:15;8.07;;;2.00;;
11921;SDS011;6021;51.182;3.160;2023-04-25T11:50:43;7.53;;;1.83;;
11921;SDS011;6021;51.182;3.160;2023-04-25T11:53:13;5.83;;;1.80;;
11921;SDS011;6021;51.182;3.160;2023-04-25T11:55:45;5.43;;;1.70;;
11921;SDS011;6021;51.182;3.160;2023-04-25T11:58:15;5.43;;;1.70;;
11921;SDS011;6021;51.182;3.160;2023-04-25T12:00:44;4.20;;;1.77;;
11921;SDS011;6021;51.182;3.160;2023-04-25T12:03:15;4.33;;;1.67;;
11921;SDS011;6021;51.182;3.160;2023-04-25T12:05:50;6.10;;;1.83;;
11921;SDS011;6021;51.182;3.160;2023-04-25T12:08:19;4.97;;;1.80;;
11921;SDS011;6021;51.182;3.160;2023-04-25T12:10:50;5.37;;;1.67;;
11921;SDS011;6021;51.182;3.160;2023-04-25T12:16:09;5.43;;;1.80;;
11921;SDS011;6021;51.182;3.160;2023-04-25T12:18:38;5.07;;;1.53;;
11921;SDS011;6021;51.182;3.160;2023-04-25T12:21:07;5.07;;;1.90;;
11921;SDS011;6021;51.182;3.160;2023-04-25T12:23:38;4.63;;;1.50;;
11921;SDS011;6021;51.182;3.160;2023-04-25T12:26:14;5.53;;;1.80;;
11921;SDS011;6021;51.182;3.160;2023-04-25T12:28:50;4.47;;;1.47;;
11921;SDS011;6021;51.182;3.160;2023-04-25T12:31:18;3.83;;;1.40;;
11921;SDS011;6021;51.182;3.160;2023-04-25T12:33:47;5.87;;;1.63;;
11921;SDS011;6021;51.182;3.160;2023-04-25T12:36:16;3.73;;;1.60;;
11921;SDS011;6021;51.182;3.160;2023-04-25T12:38:44;3.43;;;1.37;;
11921;SDS011;6021;51.182;3.160;2023-04-25T12:41:13;5.77;;;1.43;;
11921;SDS011;6021;51.182;3.160;2023-04-25T12:43:41;3.80;;;1.43;;
11921;SDS011;6021;51.182;3.160;2023-04-25T12:46:14;7.10;;;1.70;;
11921;SDS011;6021;51.182;3.160;2023-04-25T12:48:43;6.37;;;1.60;;
11921;SDS011;6021;51.182;3.160;2023-04-25T12:51:11;4.20;;;1.30;;
11921;SDS011;6021;51.182;3.160;2023-04-25T12:53:40;4.87;;;1.80;;
11921;SDS011;6021;51.182;3.160;2023-04-25T12:56:15;3.73;;;1.40;;
11921;SDS011;6021;51.182;3.160;2023-04-25T12:58:44;4.53;;;1.57;;
11921;SDS011;6021;51.182;3.160;2023-04-25T13:01:20;3.13;;;1.37;;
11921;SDS011;6021;51.182;3.160;2023-04-25T13:03:52;3.80;;;1.30;;
11921;SDS011;6021;51.182;3.160;2023-04-25T13:06:19;4.97;;;1.77;;
11921;SDS011;6021;51.182;3.160;2023-04-25T13:08:48;5.57;;;1.60;;
11921;SDS011;6021;51.182;3.160;2023-04-25T13:11:18;4.73;;;1.47;;
11921;SDS011;6021;51.182;3.160;2023-04-25T13:13:47;4.10;;;1.80;;
11921;SDS011;6021;51.182;3.160;2023-04-25T13:16:21;4.97;;;1.70;;
11921;SDS011;6021;51.182;3.160;2023-04-25T13:18:49;6.07;;;1.80;;
11921;SDS011;6021;51.182;3.160;2023-04-25T13:21:19;5.87;;;2.00;;
11921;SDS011;6021;51.182;3.160;2023-04-25T13:23:58;4.33;;;1.57;;
11921;SDS011;6021;51.182;3.160;2023-04-25T13:26:27;4.07;;;1.60;;
11921;SDS011;6021;51.182;3.160;2023-04-25T13:28:55;6.00;;;1.80;;
11921;SDS011;6021;51.182;3.160;2023-04-25T13:31:24;4.87;;;1.47;;
11921;SDS011;6021;51.182;3.160;2023-04-25T13:33:56;3.60;;;1.50;;
11921;SDS011;6021;51.182;3.160;2023-04-25T13:36:24;3.03;;;1.30;;
11921;SDS011;6021;51.182;3.160;2023-04-25T13:38:54;4.60;;;1.60;;
11921;SDS011;6021;51.182;3.160;2023-04-25T13:41:27;6.43;;;1.60;;
11921;SDS011;6021;51.182;3.160;2023-04-25T13:43:59;4.97;;;1.50;;
11921;SDS011;6021;51.182;3.160;2023-04-25T13:46:29;5.00;;;1.60;;
11921;SDS011;6021;51.182;3.160;2023-04-25T13:49:00;2.97;;;1.40;;
11921;SDS011;6021;51.182;3.160;2023-04-25T13:51:31;5.40;;;1.67;;
11921;SDS011;6021;51.182;3.160;2023-04-25T13:54:07;4.63;;;1.50;;
11921;SDS011;6021;51.182;3.160;2023-04-25T13:56:36;4.30;;;1.40;;
11921;SDS011;6021;51.182;3.160;2023-04-25T13:59:08;6.20;;;1.83;;
11921;SDS011;6021;51.182;3.160;2023-04-25T14:01:42;6.33;;;1.80;;
11921;SDS011;6021;51.182;3.160;2023-04-25T14:04:14;3.93;;;1.53;;
11921;SDS011;6021;51.182;3.160;2023-04-25T14:06:44;4.63;;;1.57;;
11921;SDS011;6021;51.182;3.160;2023-04-25T14:09:17;5.47;;;1.80;;
11921;SDS011;6021;51.182;3.160;2023-04-25T14:11:52;5.70;;;1.70;;
11921;SDS011;6021;51.182;3.160;2023-04-25T14:14:30;4.77;;;1.60;;
11921;SDS011;6021;51.182;3.160;2023-04-25T14:16:59;9.13;;;1.70;;
11921;SDS011;6021;51.182;3.160;2023-04-25T14:19:31;4.97;;;1.67;;
11921;SDS011;6021;51.182;3.160;2023-04-25T14:22:00;4.37;;;1.80;;
11921;SDS011;6021;51.182;3.160;2023-04-25T14:24:38;4.17;;;1.63;;
11921;SDS011;6021;51.182;3.160;2023-04-25T14:27:19;4.37;;;1.50;;
11921;SDS011;6021;51.182;3.160;2023-04-25T14:29:40;5.47;;;1.70;;
11921;SDS011;6021;51.182;3.160;2023-04-25T14:32:12;6.70;;;1.73;;
11921;SDS011;6021;51.182;3.160;2023-04-25T14:34:43;4.37;;;1.37;;
11921;SDS011;6021;51.182;3.160;2023-04-25T14:37:16;4.97;;;1.60;;
11921;SDS011;6021;51.182;3.160;2023-04-25T14:39:57;5.43;;;1.53;;
11921;SDS011;6021;51.182;3.160;2023-04-25T14:42:26;6.33;;;1.73;;
11921;SDS011;6021;51.182;3.160;2023-04-25T14:44:54;3.17;;;1.37;;
11921;SDS011;6021;51.182;3.160;2023-04-25T14:47:27;4.27;;;1.50;;
11921;SDS011;6021;51.182;3.160;2023-04-25T14:49:59;3.60;;;1.50;;
11921;SDS011;6021;51.182;3.160;2023-04-25T14:52:30;3.37;;;1.50;;
11921;SDS011;6021;51.182;3.160;2023-04-25T14:55:04;4.20;;;1.50;;
11921;SDS011;6021;51.182;3.160;2023-04-25T14:57:35;4.90;;;1.67;;
11921;SDS011;6021;51.182;3.160;2023-04-25T15:00:07;4.23;;;1.80;;
11921;SDS011;6021;51.182;3.160;2023-04-25T15:02:41;4.97;;;1.60;;
11921;SDS011;6021;51.182;3.160;2023-04-25T15:05:17;4.60;;;1.37;;
11921;SDS011;6021;51.182;3.160;2023-04-25T15:07:51;4.90;;;1.73;;
11921;SDS011;6021;51.182;3.160;2023-04-25T15:10:19;5.17;;;1.63;;
11921;SDS011;6021;51.182;3.160;2023-04-25T15:12:49;7.37;;;1.70;;
11921;SDS011;6021;51.182;3.160;2023-04-25T15:15:24;5.73;;;1.73;;
11921;SDS011;6021;51.182;3.160;2023-04-25T15:17:53;4.27;;;1.73;;
11921;SDS011;6021;51.182;3.160;2023-04-25T15:20:32;3.03;;;1.60;;
11921;SDS011;6021;51.182;3.160;2023-04-25T15:23:02;5.20;;;1.90;;
11921;SDS011;6021;51.182;3.160;2023-04-25T15:25:34;5.60;;;1.63;;
11921;SDS011;6021;51.182;3.160;2023-04-25T15:28:02;4.10;;;1.60;;
11921;SDS011;6021;51.182;3.160;2023-04-25T15:30:40;4.83;;;1.70;;
11921;SDS011;6021;51.182;3.160;2023-04-25T15:33:11;4.90;;;1.57;;
11921;SDS011;6021;51.182;3.160;2023-04-25T15:35:41;4.53;;;1.70;;
11921;SDS011;6021;51.182;3.160;2023-04-25T15:38:11;4.50;;;1.57;;
11921;SDS011;6021;51.182;3.160;2023-04-25T15:40:42;5.43;;;1.37;;
11921;SDS011;6021;51.182;3.160;2023-04-25T15:43:18;4.23;;;1.50;;
11921;SDS011;6021;51.182;3.160;2023-04-25T15:45:46;3.53;;;1.47;;
11921;SDS011;6021;51.182;3.160;2023-04-25T15:48:16;5.87;;;1.27;;
11921;SDS011;6021;51.182;3.160;2023-04-25T15:50:45;5.17;;;1.70;;
11921;SDS011;6021;51.182;3.160;2023-04-25T15:53:16;4.23;;;1.50;;
11921;SDS011;6021;51.182;3.160;2023-04-25T15:55:46;3.27;;;1.57;;
11921;SDS011;6021;51.182;3.160;2023-04-25T15:58:15;4.60;;;1.70;;
11921;SDS011;6021;51.182;3.160;2023-04-25T16:00:43;5.97;;;1.67;;
11921;SDS011;6021;51.182;3.160;2023-04-25T16:03:15;5.60;;;1.83;;
11921;SDS011;6021;51.182;3.160;2023-04-25T16:05:46;5.00;;;1.63;;
11921;SDS011;6021;51.182;3.160;2023-04-25T16:11:23;4.67;;;1.80;;
11921;SDS011;6021;51.182;3.160;2023-04-25T16:13:54;6.40;;;1.60;;
11921;SDS011;6021;51.182;3.160;2023-04-25T16:16:24;3.63;;;1.50;;
11921;SDS011;6021;51.182;3.160;2023-04-25T16:19:14;4.97;;;1.47;;
11921;SDS011;6021;51.182;3.160;2023-04-25T16:22:01;3.17;;;1.53;;
11921;SDS011;6021;51.182;3.160;2023-04-25T16:24:27;4.93;;;1.70;;
11921;SDS011;6021;51.182;3.160;2023-04-25T16:26:56;5.03;;;1.60;;